KDHN/DHN METAR and TAF weather

Enter ICAO airport designator
Station Type Date Time Source
KDHN METAR 2021/04/14 18:53 UTC NOAA

KDHN 141853Z 22015KT 10SM OVC090 28/10 A3008 RMK AO2 SLP181 T02830100


Station Type Date Time Source
KDHN Decoded METAR 2021/04/14 18:53 UTC NOAA

DOTHAN AIRPORT, AL, United States (KDHN) 31-19N 085-27W 113M
Apr 14, 2021 - 02:53 PM EDT / 2021.04.14 1853 UTC
Wind: from the SW (220 degrees) at 17 MPH (15 KT):0
Visibility: 10 mile(s):0
Sky conditions: overcast
Temperature: 82.9 F (28.3 C)
Dew Point: 50.0 F (10.0 C)
Relative Humidity: 31%
Pressure (altimeter): 30.08 in. Hg (1018 hPa)
ob: KDHN 141853Z 22015KT 10SM OVC090 28/10 A3008 RMK AO2 SLP181 T02830100
cycle: 19

Station Type Date Time Source
KDHN TAF 2021/04/14 18:22 UTC NOAA

TAF KDHN 141720Z 1418/1518 23008KT P6SM SCT100 OVC250
TEMPO 1420/1424 6SM -SHRA SCT070 OVC100
FM150500 23006KT P6SM BKN045 BKN080
FM150900 24003KT P6SM VCSH SCT012 OVC018
TEMPO 1510/1514 3SM TSRA BR SCT006 OVC012CB
FM151600 34005KT P6SM SCT015 BKN035

Example: see airport list